createdAt,value
2023-06-24T03:33:31.341Z,4.00
2023-06-24T03:36:00.429Z,5.20
2023-06-24T03:38:33.076Z,4.95
2023-06-24T03:41:00.603Z,5.47
2023-06-24T03:43:28.606Z,4.63
2023-06-24T03:45:56.507Z,4.63
2023-06-24T03:48:23.764Z,5.10
2023-06-24T03:50:52.452Z,4.60
2023-06-24T03:53:20.879Z,4.32
2023-06-24T03:55:48.111Z,5.45
2023-06-24T03:58:17.892Z,4.57
2023-06-24T04:00:45.346Z,4.82
2023-06-24T04:03:12.437Z,4.85
2023-06-24T04:05:40.415Z,4.97
2023-06-24T04:08:09.018Z,5.15
2023-06-24T04:10:36.047Z,4.68
2023-06-24T04:13:03.103Z,4.78
2023-06-24T04:15:30.152Z,4.35
2023-06-24T04:18:00.143Z,5.03
2023-06-24T04:20:27.479Z,5.30
2023-06-24T04:22:54.574Z,4.70
2023-06-24T04:25:21.633Z,4.80
2023-06-24T04:27:48.847Z,4.65
2023-06-24T04:30:15.894Z,4.40
2023-06-24T04:32:43.012Z,4.18
2023-06-24T04:35:10.064Z,4.65
2023-06-24T04:37:38.424Z,4.82
2023-06-24T04:40:07.254Z,4.90
2023-06-24T04:42:34.329Z,4.95
2023-06-24T04:45:02.014Z,5.63
2023-06-24T04:47:29.358Z,4.88
2023-06-24T04:49:56.398Z,5.30
2023-06-24T04:52:24.909Z,4.72
2023-06-24T04:54:51.927Z,4.72
2023-06-24T04:57:29.097Z,4.40
2023-06-24T04:59:56.372Z,5.28
2023-06-24T05:02:23.525Z,4.78
2023-06-24T05:04:50.948Z,5.72
2023-06-24T05:07:18.133Z,4.35
2023-06-24T05:09:47.883Z,4.97
2023-06-24T05:12:15.017Z,5.22
2023-06-24T05:14:42.425Z,5.15
2023-06-24T05:17:09.554Z,5.20
2023-06-24T05:19:37.045Z,5.10
2023-06-24T05:22:04.302Z,5.18
2023-06-24T05:24:31.429Z,4.90
2023-06-24T05:26:58.489Z,5.78
2023-06-24T05:29:25.563Z,5.13
2023-06-24T05:31:52.573Z,5.70
2023-06-24T05:34:19.617Z,5.57
2023-06-24T05:36:46.828Z,5.43
2023-06-24T05:39:14.479Z,5.25
2023-06-24T05:41:41.556Z,4.68
2023-06-24T05:44:09.102Z,5.55
2023-06-24T05:46:36.194Z,5.25
2023-06-24T05:49:03.379Z,5.28
2023-06-24T05:51:30.442Z,5.28
2023-06-24T05:53:57.588Z,6.03
2023-06-24T05:56:24.717Z,5.93
2023-06-24T05:58:52.023Z,5.78
2023-06-24T06:01:19.123Z,4.60
2023-06-24T06:03:46.347Z,4.80
2023-06-24T06:06:13.361Z,5.05
2023-06-24T06:08:40.406Z,4.75
2023-06-24T06:11:07.468Z,4.60
2023-06-24T06:13:34.590Z,4.80
2023-06-24T06:16:01.696Z,4.45
2023-06-24T06:18:28.942Z,4.72
2023-06-24T06:20:56.019Z,5.18
2023-06-24T06:23:23.088Z,5.35
2023-06-24T06:25:50.111Z,4.45
2023-06-24T06:28:17.454Z,5.22
2023-06-24T06:30:44.761Z,5.25
2023-06-24T06:33:11.914Z,5.05
2023-06-24T06:35:38.924Z,5.13
2023-06-24T06:38:06.269Z,4.82
2023-06-24T06:40:33.518Z,4.70
2023-06-24T06:43:00.604Z,5.10
2023-06-24T06:45:28.339Z,5.15
2023-06-24T06:47:56.158Z,5.68
2023-06-24T06:50:23.253Z,4.63
2023-06-24T06:52:50.354Z,4.70
2023-06-24T06:55:17.527Z,4.47
2023-06-24T06:57:44.638Z,4.90
2023-06-24T07:00:12.270Z,5.03
2023-06-24T07:02:39.402Z,4.30
2023-06-24T07:05:06.708Z,4.60
2023-06-24T07:07:33.973Z,4.85
2023-06-24T07:10:01.077Z,5.10
2023-06-24T07:12:28.137Z,4.97
2023-06-24T07:14:55.150Z,4.40
2023-06-24T07:17:22.319Z,4.28
2023-06-24T07:19:49.449Z,4.70
2023-06-24T07:22:16.591Z,4.38
2023-06-24T07:24:43.827Z,3.90
2023-06-24T07:27:11.060Z,3.80
2023-06-24T07:29:38.414Z,4.13
2023-06-24T07:32:05.878Z,3.80
2023-06-24T07:34:32.937Z,3.72
2023-06-24T07:37:05.507Z,3.17
2023-06-24T07:39:38.474Z,3.30
2023-06-24T07:42:05.687Z,3.65
2023-06-24T07:44:32.660Z,3.70
2023-06-24T07:46:59.846Z,3.78
2023-06-24T07:49:27.027Z,3.38
2023-06-24T07:51:54.050Z,3.40
2023-06-24T07:54:21.066Z,3.80
2023-06-24T07:56:48.120Z,3.30
2023-06-24T07:59:15.112Z,3.70
2023-06-24T08:01:42.281Z,3.60
2023-06-24T08:04:09.384Z,3.50
2023-06-24T08:06:36.582Z,3.55
2023-06-24T08:09:03.643Z,4.38
2023-06-24T08:11:30.716Z,3.65
2023-06-24T08:13:57.742Z,3.88
2023-06-24T08:16:24.744Z,3.60
2023-06-24T08:18:51.761Z,3.55
2023-06-24T08:21:18.847Z,3.65
2023-06-24T08:23:46.521Z,3.70
2023-06-24T08:26:17.585Z,4.05
2023-06-24T08:28:46.908Z,3.67
2023-06-24T08:31:14.009Z,3.95
2023-06-24T08:33:45.525Z,3.70
2023-06-24T08:36:12.922Z,3.50
2023-06-24T08:38:39.948Z,3.83
2023-06-24T08:41:07.203Z,4.60
2023-06-24T08:43:34.447Z,5.07
2023-06-24T08:46:01.474Z,5.03
2023-06-24T08:48:28.911Z,5.40
2023-06-24T08:50:56.586Z,4.65
2023-06-24T08:53:23.566Z,4.47
2023-06-24T08:55:50.672Z,4.60
2023-06-24T08:58:17.655Z,4.15
2023-06-24T09:00:44.699Z,5.00
2023-06-24T09:03:11.851Z,4.82
2023-06-24T09:05:39.008Z,4.72
2023-06-24T09:08:06.156Z,4.63
2023-06-24T09:10:34.436Z,4.32
2023-06-24T09:13:02.539Z,3.70
2023-06-24T09:15:36.501Z,4.03
2023-06-24T09:18:04.896Z,3.88
2023-06-24T09:20:33.089Z,4.47
2023-06-24T09:23:01.049Z,4.90
2023-06-24T09:25:28.382Z,3.88
2023-06-24T09:27:57.055Z,4.28
2023-06-24T09:30:24.411Z,4.43
2023-06-24T09:32:52.384Z,5.22
2023-06-24T09:35:21.255Z,4.60
2023-06-24T09:37:55.176Z,4.63
2023-06-24T09:40:22.705Z,4.38
2023-06-24T09:42:57.365Z,4.10
2023-06-24T09:45:24.925Z,4.28
2023-06-24T09:47:51.975Z,4.20
2023-06-24T09:50:19.981Z,4.57
2023-06-24T09:52:47.086Z,4.10
2023-06-24T09:55:15.345Z,4.13
2023-06-24T09:57:43.780Z,3.90
2023-06-24T10:00:11.397Z,3.60
2023-06-24T10:02:38.449Z,3.70
2023-06-24T10:05:06.768Z,3.30
2023-06-24T10:07:33.776Z,3.47
2023-06-24T10:10:03.053Z,4.30
2023-06-24T10:12:30.301Z,3.47
2023-06-24T10:14:57.470Z,3.40
2023-06-24T10:17:24.728Z,4.07
2023-06-24T10:19:53.079Z,3.90
2023-06-24T10:22:20.651Z,3.72
2023-06-24T10:24:48.138Z,3.95
2023-06-24T10:27:22.794Z,4.50
2023-06-24T10:29:53.977Z,3.60
2023-06-24T10:32:22.542Z,3.83
2023-06-24T10:34:55.716Z,4.30
2023-06-24T10:37:25.664Z,3.90
2023-06-24T10:39:52.716Z,4.10
2023-06-24T10:42:38.822Z,3.80
2023-06-24T10:45:12.045Z,3.83
2023-06-24T10:47:43.621Z,3.95
2023-06-24T10:50:30.861Z,4.20
2023-06-24T10:52:58.637Z,4.10
2023-06-24T10:55:28.741Z,4.18
2023-06-24T10:57:55.809Z,3.75
2023-06-24T11:00:23.804Z,3.70
2023-06-24T11:02:51.063Z,4.00
2023-06-24T11:05:18.861Z,3.72
2023-06-24T11:07:46.405Z,4.22
2023-06-24T11:10:15.168Z,4.18
2023-06-24T11:12:43.128Z,3.80
2023-06-24T11:15:12.004Z,3.53
2023-06-24T11:17:39.568Z,3.55
2023-06-24T11:20:11.415Z,3.80
2023-06-24T11:22:38.485Z,3.35
2023-06-24T11:25:05.845Z,3.80
2023-06-24T11:27:33.117Z,4.15
2023-06-24T11:30:02.828Z,4.18
2023-06-24T11:32:44.103Z,4.03
2023-06-24T11:35:12.084Z,3.67
2023-06-24T11:37:41.497Z,4.28
2023-06-24T11:40:09.175Z,4.40
2023-06-24T11:42:41.094Z,3.30
2023-06-24T11:45:09.467Z,4.18
2023-06-24T11:47:36.851Z,3.40
2023-06-24T11:50:05.480Z,3.70
2023-06-24T11:52:44.954Z,3.60
2023-06-24T11:55:19.575Z,3.70
2023-06-24T11:57:56.745Z,3.90
2023-06-24T12:00:28.243Z,4.03
2023-06-24T12:02:56.629Z,4.20
2023-06-24T12:05:29.614Z,4.35
2023-06-24T12:08:01.102Z,3.92
2023-06-24T12:10:28.723Z,3.92
2023-06-24T12:12:57.721Z,3.30
2023-06-24T12:15:24.790Z,3.65
2023-06-24T12:17:51.823Z,3.58
2023-06-24T12:20:19.670Z,3.70
2023-06-24T12:22:48.552Z,3.33
2023-06-24T12:25:15.997Z,3.60
2023-06-24T12:27:43.243Z,3.28
2023-06-24T12:30:11.322Z,3.92
2023-06-24T12:32:38.469Z,3.28
2023-06-24T12:35:06.007Z,4.10
2023-06-24T12:37:36.372Z,3.15
2023-06-24T12:42:30.975Z,3.20
2023-06-24T12:44:58.077Z,3.28
2023-06-24T12:47:25.069Z,3.30
2023-06-24T12:49:52.176Z,3.55
2023-06-24T12:52:19.206Z,4.20
2023-06-24T12:54:46.248Z,3.50
2023-06-24T12:57:14.385Z,4.10
2023-06-24T12:59:42.405Z,3.75
2023-06-24T13:02:09.509Z,3.70
2023-06-24T13:04:36.678Z,3.50
2023-06-24T13:07:04.621Z,4.10
2023-06-24T13:09:31.865Z,3.55
2023-06-24T13:11:59.102Z,3.78
2023-06-24T13:14:28.409Z,3.85
2023-06-24T13:16:56.531Z,3.58
2023-06-24T13:19:23.671Z,4.00
2023-06-24T13:21:50.645Z,3.92
2023-06-24T13:24:17.724Z,3.60
2023-06-24T13:26:44.751Z,3.60
2023-06-24T13:29:11.800Z,3.70
2023-06-24T13:31:38.911Z,3.40
2023-06-24T13:34:06.017Z,3.30
2023-06-24T13:36:36.907Z,3.63
2023-06-24T13:39:05.018Z,2.92
2023-06-24T13:41:33.625Z,3.88
2023-06-24T13:44:01.601Z,4.35
2023-06-24T13:46:29.372Z,3.53
2023-06-24T13:48:57.515Z,3.67
2023-06-24T13:51:24.658Z,3.88
2023-06-24T13:53:52.760Z,3.40
2023-06-24T13:56:20.261Z,3.30
2023-06-24T13:58:47.339Z,3.40
2023-06-24T14:01:14.435Z,3.47
2023-06-24T14:03:41.566Z,3.35
2023-06-24T14:06:08.785Z,3.30
2023-06-24T14:08:35.890Z,3.30
2023-06-24T14:11:02.947Z,3.40
2023-06-24T14:13:30.110Z,3.50
2023-06-24T14:15:57.335Z,3.45
2023-06-24T14:18:24.595Z,3.15
2023-06-24T14:20:51.792Z,3.40
2023-06-24T14:23:19.200Z,3.35
2023-06-24T14:25:46.298Z,3.65
2023-06-24T14:28:13.398Z,3.83
2023-06-24T14:30:40.558Z,2.90
2023-06-24T14:33:08.146Z,3.50
2023-06-24T14:35:35.266Z,3.22
2023-06-24T14:38:02.362Z,3.20
2023-06-24T14:40:29.378Z,3.25
2023-06-24T14:42:56.429Z,3.42
2023-06-24T14:45:24.948Z,3.90
2023-06-24T14:47:53.270Z,3.20
2023-06-24T14:50:20.529Z,2.90
2023-06-24T14:52:47.761Z,3.40
2023-06-24T14:55:14.799Z,3.40
2023-06-24T14:57:41.816Z,3.40
2023-06-24T15:00:09.554Z,3.45
2023-06-24T15:02:36.751Z,3.50
2023-06-24T15:05:04.768Z,3.55
2023-06-24T15:07:32.907Z,3.60
2023-06-24T15:09:59.970Z,3.35
2023-06-24T15:12:27.075Z,2.78
2023-06-24T15:14:54.108Z,3.72
2023-06-24T15:17:22.304Z,3.33
2023-06-24T15:19:51.296Z,3.75
2023-06-24T15:22:18.414Z,3.35
2023-06-24T15:24:46.087Z,3.25
2023-06-24T15:27:13.349Z,3.65
2023-06-24T15:29:40.443Z,3.33
2023-06-24T15:32:07.925Z,2.95
2023-06-24T15:34:34.984Z,3.72
2023-06-24T15:37:02.071Z,3.70
2023-06-24T15:39:29.197Z,3.30
2023-06-24T15:41:56.353Z,3.08
2023-06-24T15:44:23.496Z,3.47
2023-06-24T15:46:50.541Z,3.55
2023-06-24T15:49:17.563Z,3.25
2023-06-24T15:51:44.678Z,3.20
2023-06-24T15:54:11.672Z,3.42
2023-06-24T15:56:38.783Z,3.60
2023-06-24T15:59:05.877Z,4.07
2023-06-24T16:01:33.204Z,4.05
2023-06-24T16:04:00.306Z,3.80
2023-06-24T16:06:27.404Z,3.15
2023-06-24T16:08:54.500Z,3.10
2023-06-24T16:11:21.611Z,3.47
2023-06-24T16:13:48.857Z,3.55
2023-06-24T16:16:16.000Z,3.40
2023-06-24T16:18:43.346Z,3.38
2023-06-24T16:21:10.576Z,3.65
2023-06-24T16:23:37.657Z,3.80
2023-06-24T16:26:06.091Z,3.58
2023-06-24T16:28:33.224Z,3.35
2023-06-24T16:31:00.288Z,3.72
2023-06-24T16:33:27.374Z,3.35
2023-06-24T16:35:54.488Z,3.42
2023-06-24T16:38:21.597Z,3.35
2023-06-24T16:40:49.070Z,3.40
2023-06-24T16:43:16.067Z,3.55
2023-06-24T16:45:44.353Z,3.50
2023-06-24T16:48:12.612Z,3.40
2023-06-24T16:50:39.646Z,3.40
2023-06-24T16:53:06.715Z,3.45
2023-06-24T16:55:33.759Z,3.20
2023-06-24T16:58:00.761Z,3.40
2023-06-24T17:00:27.852Z,3.40
2023-06-24T17:02:55.062Z,3.63
2023-06-24T17:05:22.440Z,3.30
2023-06-24T17:07:49.611Z,3.30
2023-06-24T17:10:16.745Z,3.55
2023-06-24T17:12:43.824Z,3.50
2023-06-24T17:15:11.399Z,3.85
2023-06-24T17:17:38.611Z,3.25
2023-06-24T17:20:06.602Z,3.58
2023-06-24T17:22:33.636Z,3.60
2023-06-24T17:25:00.710Z,3.40
2023-06-24T17:27:27.828Z,3.42
2023-06-24T17:29:58.254Z,3.63
2023-06-24T17:32:25.412Z,3.80
2023-06-24T17:34:52.758Z,3.22
2023-06-24T17:37:20.045Z,3.28
2023-06-24T17:39:47.083Z,3.65
2023-06-24T17:42:14.523Z,3.25
2023-06-24T17:44:41.626Z,3.22
2023-06-24T17:47:08.681Z,3.28
2023-06-24T17:49:35.858Z,3.10
2023-06-24T17:52:02.991Z,3.40
2023-06-24T17:54:30.039Z,3.35
2023-06-24T17:56:57.050Z,3.17
2023-06-24T17:59:24.153Z,3.03
2023-06-24T18:01:51.327Z,3.20
2023-06-24T18:04:18.472Z,3.45
2023-06-24T18:06:45.840Z,3.08
2023-06-24T18:09:13.594Z,3.53
2023-06-24T18:11:40.772Z,3.13
2023-06-24T18:14:08.254Z,3.17
2023-06-24T18:16:40.464Z,3.20
2023-06-24T18:19:09.256Z,3.58
2023-06-24T18:21:37.514Z,3.10
2023-06-24T18:24:04.758Z,3.42
2023-06-24T18:26:31.746Z,3.25
2023-06-24T18:29:00.063Z,3.58
2023-06-24T18:31:27.282Z,3.58
2023-06-24T18:33:57.264Z,3.42
2023-06-24T18:36:25.739Z,3.25
2023-06-24T18:38:53.419Z,3.33
2023-06-24T18:41:21.048Z,3.33
2023-06-24T18:43:48.128Z,3.63
2023-06-24T18:46:16.999Z,3.67
2023-06-24T18:48:45.983Z,3.55
2023-06-24T18:51:13.017Z,4.43
2023-06-24T18:53:40.497Z,4.00
2023-06-24T18:56:07.578Z,3.85
2023-06-24T18:58:37.254Z,3.83
2023-06-24T19:01:04.627Z,3.70
2023-06-24T19:03:31.924Z,4.28
2023-06-24T19:05:59.210Z,3.95
2023-06-24T19:08:26.273Z,4.55
2023-06-24T19:10:53.505Z,3.95
2023-06-24T19:13:20.503Z,4.20
2023-06-24T19:15:47.531Z,3.90
2023-06-24T19:18:14.638Z,4.32
2023-06-24T19:20:42.359Z,4.15
2023-06-24T19:23:09.885Z,4.20
2023-06-24T19:25:37.019Z,3.90
2023-06-24T19:28:04.242Z,3.65
2023-06-24T19:30:31.285Z,4.03
2023-06-24T19:32:58.410Z,4.05
2023-06-24T19:35:25.761Z,6.35
2023-06-24T19:37:52.767Z,8.05
2023-06-24T19:40:23.060Z,6.47
2023-06-24T19:42:50.229Z,5.28
2023-06-24T19:45:17.366Z,4.65
2023-06-24T19:47:44.426Z,5.13
2023-06-24T19:50:11.573Z,4.10
2023-06-24T19:52:38.700Z,4.88
2023-06-24T19:55:07.584Z,4.43
2023-06-24T19:57:39.628Z,5.18
2023-06-24T20:00:10.201Z,4.03
2023-06-24T20:02:44.660Z,4.90
2023-06-24T20:05:11.853Z,4.40
2023-06-24T20:07:38.909Z,4.85
2023-06-24T20:10:06.518Z,5.60
2023-06-24T20:12:33.567Z,5.00
2023-06-24T20:15:02.064Z,4.68
2023-06-24T20:17:31.072Z,4.72
2023-06-24T20:19:58.097Z,4.35
2023-06-24T20:22:25.334Z,4.47
2023-06-24T20:24:52.369Z,4.10
2023-06-24T20:27:19.551Z,4.80
2023-06-24T20:29:46.622Z,4.38
2023-06-24T20:32:13.694Z,4.30
2023-06-24T20:34:40.734Z,3.83
2023-06-24T20:37:07.800Z,4.28
2023-06-24T20:39:35.191Z,4.90
2023-06-24T20:42:02.199Z,4.82
2023-06-24T20:44:29.266Z,4.85
2023-06-24T20:46:56.351Z,5.55
2023-06-24T20:49:23.363Z,4.88
2023-06-24T20:51:50.574Z,5.32
2023-06-24T20:54:17.750Z,4.80
2023-06-24T20:56:44.898Z,4.63
2023-06-24T20:59:11.930Z,5.30
2023-06-24T21:01:39.080Z,4.68
2023-06-24T21:04:07.466Z,5.18
2023-06-24T21:06:34.922Z,4.28
2023-06-24T21:09:01.919Z,4.70
2023-06-24T21:11:28.979Z,4.05
2023-06-24T21:13:55.977Z,4.80
2023-06-24T21:16:23.884Z,4.20
2023-06-24T21:18:50.974Z,4.68
2023-06-24T21:21:18.041Z,5.05
2023-06-24T21:23:45.071Z,4.72
2023-06-24T21:26:12.099Z,4.68
2023-06-24T21:28:39.104Z,5.45
2023-06-24T21:31:06.201Z,4.90
2023-06-24T21:33:33.276Z,5.57
2023-06-24T21:36:01.761Z,5.30
2023-06-24T21:38:29.358Z,5.65
2023-06-24T21:40:56.443Z,5.47
2023-06-24T21:43:23.465Z,5.22
2023-06-24T21:45:50.586Z,5.75
2023-06-24T21:48:17.694Z,5.80
2023-06-24T21:50:44.828Z,5.95
2023-06-24T21:53:11.887Z,6.53
2023-06-24T21:55:39.117Z,6.20
2023-06-24T21:58:06.165Z,6.00
